sensor_id;sensor_type;location;lat;lon;timestamp;temperature;humidity
11855;DHT22;5987;53.140;8.904;2023-03-21T00:00:54;9.20;99.90
11855;DHT22;5987;53.140;8.904;2023-03-21T00:03:59;9.10;99.90
11855;DHT22;5987;53.140;8.904;2023-03-21T00:07:03;9.00;99.90
11855;DHT22;5987;53.140;8.904;2023-03-21T00:10:10;9.00;99.90
11855;DHT22;5987;53.140;8.904;2023-03-21T00:13:22;9.00;99.90
11855;DHT22;5987;53.140;8.904;2023-03-21T00:16:28;9.10;99.90
11855;DHT22;5987;53.140;8.904;2023-03-21T00:19:41;9.10;99.90
11855;DHT22;5987;53.140;8.904;2023-03-21T00:22:45;9.20;99.90
11855;DHT22;5987;53.140;8.904;2023-03-21T00:25:51;9.10;99.90
11855;DHT22;5987;53.140;8.904;2023-03-21T00:28:55;9.10;99.90
11855;DHT22;5987;53.140;8.904;2023-03-21T00:31:58;9.10;99.90
11855;DHT22;5987;53.140;8.904;2023-03-21T00:35:02;9.10;99.90
11855;DHT22;5987;53.140;8.904;2023-03-21T00:38:26;9.10;99.90
11855;DHT22;5987;53.140;8.904;2023-03-21T00:41:31;9.10;99.90
11855;DHT22;5987;53.140;8.904;2023-03-21T00:44:43;9.20;99.90
11855;DHT22;5987;53.140;8.904;2023-03-21T00:47:47;9.20;99.90
11855;DHT22;5987;53.140;8.904;2023-03-21T00:50:52;9.20;99.90
11855;DHT22;5987;53.140;8.904;2023-03-21T00:53:58;9.20;99.90
11855;DHT22;5987;53.140;8.904;2023-03-21T00:57:03;9.20;99.90
11855;DHT22;5987;53.140;8.904;2023-03-21T01:00:09;9.30;99.90
11855;DHT22;5987;53.140;8.904;2023-03-21T01:03:15;9.30;99.90
11855;DHT22;5987;53.140;8.904;2023-03-21T01:06:26;9.30;99.90
11855;DHT22;5987;53.140;8.904;2023-03-21T01:09:30;9.30;99.90
11855;DHT22;5987;53.140;8.904;2023-03-21T01:12:35;9.20;99.90
11855;DHT22;5987;53.140;8.904;2023-03-21T01:15:43;9.20;99.90
11855;DHT22;5987;53.140;8.904;2023-03-21T01:18:49;9.20;99.90
11855;DHT22;5987;53.140;8.904;2023-03-21T01:21:52;9.20;99.90
11855;DHT22;5987;53.140;8.904;2023-03-21T01:24:56;9.30;99.90
11855;DHT22;5987;53.140;8.904;2023-03-21T01:28:21;9.20;99.90
11855;DHT22;5987;53.140;8.904;2023-03-21T01:31:27;9.20;99.90
11855;DHT22;5987;53.140;8.904;2023-03-21T01:34:31;9.20;99.90
11855;DHT22;5987;53.140;8.904;2023-03-21T01:37:35;9.30;99.90
11855;DHT22;5987;53.140;8.904;2023-03-21T01:40:39;9.40;99.90
11855;DHT22;5987;53.140;8.904;2023-03-21T01:43:45;9.40;99.90
11855;DHT22;5987;53.140;8.904;2023-03-21T01:46:50;9.40;99.90
11855;DHT22;5987;53.140;8.904;2023-03-21T01:50:13;9.30;99.90
11855;DHT22;5987;53.140;8.904;2023-03-21T01:53:19;9.30;99.90
11855;DHT22;5987;53.140;8.904;2023-03-21T01:56:27;9.30;99.90
11855;DHT22;5987;53.140;8.904;2023-03-21T01:59:36;9.30;99.90
11855;DHT22;5987;53.140;8.904;2023-03-21T02:02:44;9.40;99.90
11855;DHT22;5987;53.140;8.904;2023-03-21T02:05:57;9.40;99.90
11855;DHT22;5987;53.140;8.904;2023-03-21T02:09:05;9.30;99.90
11855;DHT22;5987;53.140;8.904;2023-03-21T02:12:12;9.30;99.90
11855;DHT22;5987;53.140;8.904;2023-03-21T02:15:18;9.30;99.90
11855;DHT22;5987;53.140;8.904;2023-03-21T02:18:28;9.30;99.90
11855;DHT22;5987;53.140;8.904;2023-03-21T02:26:30;9.30;99.90
11855;DHT22;5987;53.140;8.904;2023-03-21T02:30:20;9.30;99.90
11855;DHT22;5987;53.140;8.904;2023-03-21T02:34:32;9.30;99.90
11855;DHT22;5987;53.140;8.904;2023-03-21T02:37:56;9.30;99.90
11855;DHT22;5987;53.140;8.904;2023-03-21T02:41:10;9.30;99.90
11855;DHT22;5987;53.140;8.904;2023-03-21T02:44:25;9.30;99.90
11855;DHT22;5987;53.140;8.904;2023-03-21T02:47:40;9.30;99.90
11855;DHT22;5987;53.140;8.904;2023-03-21T02:50:51;9.30;99.90
11855;DHT22;5987;53.140;8.904;2023-03-21T02:54:02;9.30;99.90
11855;DHT22;5987;53.140;8.904;2023-03-21T02:57:28;9.30;99.90
11855;DHT22;5987;53.140;8.904;2023-03-21T03:00:44;9.40;99.90
11855;DHT22;5987;53.140;8.904;2023-03-21T03:03:49;9.30;99.90
11855;DHT22;5987;53.140;8.904;2023-03-21T03:07:18;9.40;99.90
11855;DHT22;5987;53.140;8.904;2023-03-21T03:10:42;9.40;99.90
11855;DHT22;5987;53.140;8.904;2023-03-21T03:14:09;9.40;99.90
11855;DHT22;5987;53.140;8.904;2023-03-21T03:17:52;9.40;99.90
11855;DHT22;5987;53.140;8.904;2023-03-21T03:21:07;9.50;99.90
11855;DHT22;5987;53.140;8.904;2023-03-21T03:24:20;9.40;99.90
11855;DHT22;5987;53.140;8.904;2023-03-21T03:27:31;9.40;99.90
11855;DHT22;5987;53.140;8.904;2023-03-21T03:30:40;9.40;99.90
11855;DHT22;5987;53.140;8.904;2023-03-21T03:34:05;9.40;99.90
11855;DHT22;5987;53.140;8.904;2023-03-21T03:37:14;9.40;99.90
11855;DHT22;5987;53.140;8.904;2023-03-21T03:40:24;9.30;99.90
11855;DHT22;5987;53.140;8.904;2023-03-21T03:43:35;9.30;99.90
11855;DHT22;5987;53.140;8.904;2023-03-21T03:46:47;9.30;99.90
11855;DHT22;5987;53.140;8.904;2023-03-21T03:50:00;9.40;99.90
11855;DHT22;5987;53.140;8.904;2023-03-21T03:53:16;9.40;99.90
11855;DHT22;5987;53.140;8.904;2023-03-21T03:56:24;9.50;99.90
11855;DHT22;5987;53.140;8.904;2023-03-21T03:59:30;9.40;99.90
11855;DHT22;5987;53.140;8.904;2023-03-21T04:02:36;9.40;99.90
11855;DHT22;5987;53.140;8.904;2023-03-21T04:05:40;9.40;99.90
11855;DHT22;5987;53.140;8.904;2023-03-21T04:08:47;9.40;99.90
11855;DHT22;5987;53.140;8.904;2023-03-21T04:11:51;9.40;99.90
11855;DHT22;5987;53.140;8.904;2023-03-21T04:14:56;9.50;99.90
11855;DHT22;5987;53.140;8.904;2023-03-21T04:18:10;9.50;99.90
11855;DHT22;5987;53.140;8.904;2023-03-21T04:21:14;9.50;99.90
11855;DHT22;5987;53.140;8.904;2023-03-21T04:24:18;9.50;99.90
11855;DHT22;5987;53.140;8.904;2023-03-21T04:27:21;9.50;99.90
11855;DHT22;5987;53.140;8.904;2023-03-21T04:30:26;9.60;99.90
11855;DHT22;5987;53.140;8.904;2023-03-21T04:33:30;9.60;99.90
11855;DHT22;5987;53.140;8.904;2023-03-21T04:36:39;9.60;99.90
11855;DHT22;5987;53.140;8.904;2023-03-21T04:39:45;9.60;99.90
11855;DHT22;5987;53.140;8.904;2023-03-21T04:42:49;9.60;99.90
11855;DHT22;5987;53.140;8.904;2023-03-21T04:45:54;9.60;99.90
11855;DHT22;5987;53.140;8.904;2023-03-21T04:48:57;9.60;99.90
11855;DHT22;5987;53.140;8.904;2023-03-21T04:52:01;9.60;99.90
11855;DHT22;5987;53.140;8.904;2023-03-21T04:55:06;9.60;99.90
11855;DHT22;5987;53.140;8.904;2023-03-21T04:58:11;9.70;99.90
11855;DHT22;5987;53.140;8.904;2023-03-21T05:01:16;9.70;99.90
11855;DHT22;5987;53.140;8.904;2023-03-21T05:04:21;9.70;99.90
11855;DHT22;5987;53.140;8.904;2023-03-21T05:07:25;9.60;99.90
11855;DHT22;5987;53.140;8.904;2023-03-21T05:10:29;9.50;99.90
11855;DHT22;5987;53.140;8.904;2023-03-21T05:13:32;9.60;99.90
11855;DHT22;5987;53.140;8.904;2023-03-21T05:16:39;9.60;99.90
11855;DHT22;5987;53.140;8.904;2023-03-21T05:19:46;9.70;99.90
11855;DHT22;5987;53.140;8.904;2023-03-21T05:22:51;9.70;99.90
11855;DHT22;5987;53.140;8.904;2023-03-21T05:25:55;9.70;99.90
11855;DHT22;5987;53.140;8.904;2023-03-21T05:28:58;9.80;99.90
11855;DHT22;5987;53.140;8.904;2023-03-21T05:32:03;9.70;99.90
11855;DHT22;5987;53.140;8.904;2023-03-21T05:35:08;9.70;99.90
11855;DHT22;5987;53.140;8.904;2023-03-21T05:38:12;9.70;99.90
11855;DHT22;5987;53.140;8.904;2023-03-21T05:41:17;9.70;99.90
11855;DHT22;5987;53.140;8.904;2023-03-21T05:44:22;9.70;99.90
11855;DHT22;5987;53.140;8.904;2023-03-21T05:47:27;9.70;99.90
11855;DHT22;5987;53.140;8.904;2023-03-21T05:50:30;9.70;99.90
11855;DHT22;5987;53.140;8.904;2023-03-21T05:53:34;9.70;99.90
11855;DHT22;5987;53.140;8.904;2023-03-21T05:56:38;9.70;99.90
11855;DHT22;5987;53.140;8.904;2023-03-21T05:59:41;9.70;99.90
11855;DHT22;5987;53.140;8.904;2023-03-21T06:02:47;9.70;99.90
11855;DHT22;5987;53.140;8.904;2023-03-21T06:05:51;9.70;99.90
11855;DHT22;5987;53.140;8.904;2023-03-21T06:08:55;9.70;99.90
11855;DHT22;5987;53.140;8.904;2023-03-21T06:11:59;9.70;99.90
11855;DHT22;5987;53.140;8.904;2023-03-21T06:15:03;9.70;99.90
11855;DHT22;5987;53.140;8.904;2023-03-21T06:18:11;9.70;99.90
11855;DHT22;5987;53.140;8.904;2023-03-21T06:21:14;9.80;99.90
11855;DHT22;5987;53.140;8.904;2023-03-21T06:24:18;9.80;99.90
11855;DHT22;5987;53.140;8.904;2023-03-21T06:27:22;9.80;99.90
11855;DHT22;5987;53.140;8.904;2023-03-21T06:30:25;9.90;99.90
11855;DHT22;5987;53.140;8.904;2023-03-21T06:33:32;9.90;99.90
11855;DHT22;5987;53.140;8.904;2023-03-21T06:36:37;9.80;99.90
11855;DHT22;5987;53.140;8.904;2023-03-21T06:39:40;9.90;99.90
11855;DHT22;5987;53.140;8.904;2023-03-21T06:42:44;10.00;99.90
11855;DHT22;5987;53.140;8.904;2023-03-21T06:45:47;10.10;99.90
11855;DHT22;5987;53.140;8.904;2023-03-21T06:48:52;10.10;99.90
11855;DHT22;5987;53.140;8.904;2023-03-21T06:51:56;10.00;99.90
11855;DHT22;5987;53.140;8.904;2023-03-21T06:55:00;10.10;99.90
11855;DHT22;5987;53.140;8.904;2023-03-21T06:58:03;10.10;99.90
11855;DHT22;5987;53.140;8.904;2023-03-21T07:01:07;10.10;99.90
11855;DHT22;5987;53.140;8.904;2023-03-21T07:04:12;10.20;99.90
11855;DHT22;5987;53.140;8.904;2023-03-21T07:07:16;10.30;99.90
11855;DHT22;5987;53.140;8.904;2023-03-21T07:10:21;10.30;99.90
11855;DHT22;5987;53.140;8.904;2023-03-21T07:13:25;10.30;99.90
11855;DHT22;5987;53.140;8.904;2023-03-21T07:16:29;10.40;99.90
11855;DHT22;5987;53.140;8.904;2023-03-21T07:19:34;10.50;99.90
11855;DHT22;5987;53.140;8.904;2023-03-21T07:22:38;10.50;99.90
11855;DHT22;5987;53.140;8.904;2023-03-21T07:25:42;10.50;99.90
11855;DHT22;5987;53.140;8.904;2023-03-21T07:28:46;10.60;99.90
11855;DHT22;5987;53.140;8.904;2023-03-21T07:31:49;10.60;99.90
11855;DHT22;5987;53.140;8.904;2023-03-21T07:34:55;10.70;99.90
11855;DHT22;5987;53.140;8.904;2023-03-21T07:38:02;10.70;99.90
11855;DHT22;5987;53.140;8.904;2023-03-21T07:41:06;10.60;99.90
11855;DHT22;5987;53.140;8.904;2023-03-21T07:44:10;10.60;99.90
11855;DHT22;5987;53.140;8.904;2023-03-21T07:47:13;10.60;99.90
11855;DHT22;5987;53.140;8.904;2023-03-21T07:50:19;10.70;99.90
11855;DHT22;5987;53.140;8.904;2023-03-21T07:53:23;10.60;99.90
11855;DHT22;5987;53.140;8.904;2023-03-21T07:56:26;10.50;99.90
11855;DHT22;5987;53.140;8.904;2023-03-21T07:59:30;10.50;99.90
11855;DHT22;5987;53.140;8.904;2023-03-21T08:02:33;10.50;99.90
11855;DHT22;5987;53.140;8.904;2023-03-21T08:05:39;10.60;99.90
11855;DHT22;5987;53.140;8.904;2023-03-21T08:08:43;10.60;99.90
11855;DHT22;5987;53.140;8.904;2023-03-21T08:11:47;10.70;99.90
11855;DHT22;5987;53.140;8.904;2023-03-21T08:14:50;10.80;99.90
11855;DHT22;5987;53.140;8.904;2023-03-21T08:17:54;10.80;99.90
11855;DHT22;5987;53.140;8.904;2023-03-21T08:20:59;11.00;99.90
11855;DHT22;5987;53.140;8.904;2023-03-21T08:24:04;10.90;99.90
11855;DHT22;5987;53.140;8.904;2023-03-21T08:27:09;10.80;99.90
11855;DHT22;5987;53.140;8.904;2023-03-21T08:30:15;11.00;99.90
11855;DHT22;5987;53.140;8.904;2023-03-21T08:33:21;11.10;99.90
11855;DHT22;5987;53.140;8.904;2023-03-21T08:36:26;11.10;99.90
11855;DHT22;5987;53.140;8.904;2023-03-21T08:39:33;11.00;99.90
11855;DHT22;5987;53.140;8.904;2023-03-21T08:42:37;11.00;99.90
11855;DHT22;5987;53.140;8.904;2023-03-21T08:45:41;10.90;99.90
11855;DHT22;5987;53.140;8.904;2023-03-21T08:48:46;10.90;99.90
11855;DHT22;5987;53.140;8.904;2023-03-21T08:51:54;10.90;99.90
11855;DHT22;5987;53.140;8.904;2023-03-21T08:54:58;11.00;99.90
11855;DHT22;5987;53.140;8.904;2023-03-21T08:58:03;11.00;99.90
11855;DHT22;5987;53.140;8.904;2023-03-21T09:01:08;11.00;99.90
11855;DHT22;5987;53.140;8.904;2023-03-21T09:04:12;11.00;99.90
11855;DHT22;5987;53.140;8.904;2023-03-21T09:07:17;11.00;99.90
11855;DHT22;5987;53.140;8.904;2023-03-21T09:10:22;11.10;99.90
11855;DHT22;5987;53.140;8.904;2023-03-21T09:13:26;11.10;99.90
11855;DHT22;5987;53.140;8.904;2023-03-21T09:16:30;11.10;99.90
11855;DHT22;5987;53.140;8.904;2023-03-21T09:19:35;11.10;99.90
11855;DHT22;5987;53.140;8.904;2023-03-21T09:22:41;11.20;99.90
11855;DHT22;5987;53.140;8.904;2023-03-21T09:25:45;11.20;99.90
11855;DHT22;5987;53.140;8.904;2023-03-21T09:28:48;11.10;99.90
11855;DHT22;5987;53.140;8.904;2023-03-21T09:31:53;11.20;99.90
11855;DHT22;5987;53.140;8.904;2023-03-21T09:34:56;11.20;99.90
11855;DHT22;5987;53.140;8.904;2023-03-21T09:38:01;11.00;99.90
11855;DHT22;5987;53.140;8.904;2023-03-21T09:41:24;11.10;99.90
11855;DHT22;5987;53.140;8.904;2023-03-21T09:44:49;11.10;99.90
11855;DHT22;5987;53.140;8.904;2023-03-21T09:48:04;11.20;99.90
11855;DHT22;5987;53.140;8.904;2023-03-21T09:51:20;11.10;99.90
11855;DHT22;5987;53.140;8.904;2023-03-21T09:54:27;11.10;99.90
11855;DHT22;5987;53.140;8.904;2023-03-21T09:57:39;11.20;99.90
11855;DHT22;5987;53.140;8.904;2023-03-21T10:00:49;11.10;99.90
11855;DHT22;5987;53.140;8.904;2023-03-21T10:03:59;11.20;99.90
11855;DHT22;5987;53.140;8.904;2023-03-21T10:07:09;11.20;99.90
11855;DHT22;5987;53.140;8.904;2023-03-21T10:10:24;11.20;99.90
11855;DHT22;5987;53.140;8.904;2023-03-21T10:13:33;11.20;99.90
11855;DHT22;5987;53.140;8.904;2023-03-21T10:16:43;11.30;99.90
11855;DHT22;5987;53.140;8.904;2023-03-21T10:19:55;11.30;99.90
11855;DHT22;5987;53.140;8.904;2023-03-21T10:23:07;11.40;99.90
11855;DHT22;5987;53.140;8.904;2023-03-21T10:26:18;11.60;99.90
11855;DHT22;5987;53.140;8.904;2023-03-21T10:29:25;11.70;99.90
11855;DHT22;5987;53.140;8.904;2023-03-21T10:32:32;11.80;99.90
11855;DHT22;5987;53.140;8.904;2023-03-21T10:35:37;11.80;99.90
11855;DHT22;5987;53.140;8.904;2023-03-21T10:38:46;11.90;99.90
11855;DHT22;5987;53.140;8.904;2023-03-21T10:41:54;11.90;99.90
11855;DHT22;5987;53.140;8.904;2023-03-21T10:44:58;11.80;99.90
11855;DHT22;5987;53.140;8.904;2023-03-21T10:48:06;11.80;99.90
11855;DHT22;5987;53.140;8.904;2023-03-21T10:51:16;11.70;99.90
11855;DHT22;5987;53.140;8.904;2023-03-21T10:54:27;11.70;99.90
11855;DHT22;5987;53.140;8.904;2023-03-21T10:57:34;11.70;99.90
11855;DHT22;5987;53.140;8.904;2023-03-21T11:00:41;11.80;99.90
11855;DHT22;5987;53.140;8.904;2023-03-21T11:03:46;11.70;99.90
11855;DHT22;5987;53.140;8.904;2023-03-21T11:06:53;11.70;99.90
11855;DHT22;5987;53.140;8.904;2023-03-21T11:10:13;11.70;99.90
11855;DHT22;5987;53.140;8.904;2023-03-21T11:13:37;11.70;99.90
11855;DHT22;5987;53.140;8.904;2023-03-21T11:16:43;11.60;99.90
11855;DHT22;5987;53.140;8.904;2023-03-21T11:19:50;11.70;99.90
11855;DHT22;5987;53.140;8.904;2023-03-21T11:22:56;11.60;99.90
11855;DHT22;5987;53.140;8.904;2023-03-21T11:26:16;11.60;99.90
11855;DHT22;5987;53.140;8.904;2023-03-21T11:29:33;11.70;99.90
11855;DHT22;5987;53.140;8.904;2023-03-21T11:32:55;11.70;99.90
11855;DHT22;5987;53.140;8.904;2023-03-21T11:36:03;11.80;99.90
11855;DHT22;5987;53.140;8.904;2023-03-21T11:39:29;11.90;99.90
11855;DHT22;5987;53.140;8.904;2023-03-21T11:42:41;12.00;99.90
11855;DHT22;5987;53.140;8.904;2023-03-21T11:45:57;12.00;99.90
11855;DHT22;5987;53.140;8.904;2023-03-21T11:49:02;11.90;99.90
11855;DHT22;5987;53.140;8.904;2023-03-21T11:52:15;12.00;99.90
11855;DHT22;5987;53.140;8.904;2023-03-21T11:55:36;12.00;99.90
11855;DHT22;5987;53.140;8.904;2023-03-21T11:58:57;12.00;99.90
11855;DHT22;5987;53.140;8.904;2023-03-21T12:02:30;11.90;99.90
11855;DHT22;5987;53.140;8.904;2023-03-21T12:06:00;11.90;99.90
11855;DHT22;5987;53.140;8.904;2023-03-21T12:09:21;11.90;99.90
11855;DHT22;5987;53.140;8.904;2023-03-21T12:12:41;11.80;99.90
11855;DHT22;5987;53.140;8.904;2023-03-21T12:15:59;11.80;99.90
11855;DHT22;5987;53.140;8.904;2023-03-21T12:23:15;11.90;99.90
11855;DHT22;5987;53.140;8.904;2023-03-21T12:26:42;11.90;99.90
11855;DHT22;5987;53.140;8.904;2023-03-21T12:30:09;11.80;99.90
11855;DHT22;5987;53.140;8.904;2023-03-21T12:33:44;11.70;99.90
11855;DHT22;5987;53.140;8.904;2023-03-21T12:37:10;11.70;99.90
11855;DHT22;5987;53.140;8.904;2023-03-21T12:40:38;11.70;99.90
11855;DHT22;5987;53.140;8.904;2023-03-21T12:43:57;11.70;99.90
11855;DHT22;5987;53.140;8.904;2023-03-21T12:47:08;11.60;99.90
11855;DHT22;5987;53.140;8.904;2023-03-21T12:50:20;11.40;99.90
11855;DHT22;5987;53.140;8.904;2023-03-21T12:53:36;11.40;99.90
11855;DHT22;5987;53.140;8.904;2023-03-21T12:56:54;11.60;99.90
11855;DHT22;5987;53.140;8.904;2023-03-21T13:00:05;11.50;99.90
11855;DHT22;5987;53.140;8.904;2023-03-21T13:03:20;11.50;99.90
11855;DHT22;5987;53.140;8.904;2023-03-21T13:06:40;11.50;99.90
11855;DHT22;5987;53.140;8.904;2023-03-21T13:09:49;11.40;99.90
11855;DHT22;5987;53.140;8.904;2023-03-21T13:13:08;11.40;99.90
11855;DHT22;5987;53.140;8.904;2023-03-21T13:16:22;11.40;99.90
11855;DHT22;5987;53.140;8.904;2023-03-21T13:19:33;11.40;99.90
11855;DHT22;5987;53.140;8.904;2023-03-21T13:22:43;11.30;99.90
11855;DHT22;5987;53.140;8.904;2023-03-21T13:25:50;11.30;99.90
11855;DHT22;5987;53.140;8.904;2023-03-21T13:28:57;11.20;99.90
11855;DHT22;5987;53.140;8.904;2023-03-21T13:32:26;11.20;99.90
11855;DHT22;5987;53.140;8.904;2023-03-21T13:35:34;11.30;99.90
11855;DHT22;5987;53.140;8.904;2023-03-21T13:38:48;11.30;99.90
11855;DHT22;5987;53.140;8.904;2023-03-21T13:41:55;11.30;99.90
11855;DHT22;5987;53.140;8.904;2023-03-21T13:45:10;11.40;99.90
11855;DHT22;5987;53.140;8.904;2023-03-21T13:48:26;11.30;99.90
11855;DHT22;5987;53.140;8.904;2023-03-21T13:51:43;11.30;99.90
11855;DHT22;5987;53.140;8.904;2023-03-21T13:54:51;11.30;99.90
11855;DHT22;5987;53.140;8.904;2023-03-21T13:57:58;11.40;99.90
11855;DHT22;5987;53.140;8.904;2023-03-21T14:01:14;11.30;99.90
11855;DHT22;5987;53.140;8.904;2023-03-21T14:04:26;11.30;99.90
11855;DHT22;5987;53.140;8.904;2023-03-21T14:07:54;11.20;99.90
11855;DHT22;5987;53.140;8.904;2023-03-21T14:11:11;11.10;99.90
11855;DHT22;5987;53.140;8.904;2023-03-21T14:14:25;11.20;99.90
11855;DHT22;5987;53.140;8.904;2023-03-21T14:17:34;11.30;99.90
11855;DHT22;5987;53.140;8.904;2023-03-21T14:20:38;11.30;99.90
11855;DHT22;5987;53.140;8.904;2023-03-21T14:23:43;11.30;99.90
11855;DHT22;5987;53.140;8.904;2023-03-21T14:26:48;11.50;99.90
11855;DHT22;5987;53.140;8.904;2023-03-21T14:29:55;11.60;99.90
11855;DHT22;5987;53.140;8.904;2023-03-21T14:33:03;11.80;99.90
11855;DHT22;5987;53.140;8.904;2023-03-21T14:36:16;11.80;99.90
11855;DHT22;5987;53.140;8.904;2023-03-21T14:39:25;11.80;99.90
11855;DHT22;5987;53.140;8.904;2023-03-21T14:42:33;11.70;99.90
11855;DHT22;5987;53.140;8.904;2023-03-21T14:45:39;11.60;99.90
11855;DHT22;5987;53.140;8.904;2023-03-21T14:48:43;11.50;99.90
11855;DHT22;5987;53.140;8.904;2023-03-21T14:51:48;11.60;99.90
11855;DHT22;5987;53.140;8.904;2023-03-21T14:54:53;11.60;99.90
11855;DHT22;5987;53.140;8.904;2023-03-21T14:57:58;11.50;99.90
11855;DHT22;5987;53.140;8.904;2023-03-21T15:01:05;11.60;99.90
11855;DHT22;5987;53.140;8.904;2023-03-21T15:04:15;11.60;99.90
11855;DHT22;5987;53.140;8.904;2023-03-21T15:07:27;11.70;99.90
11855;DHT22;5987;53.140;8.904;2023-03-21T15:10:33;11.70;99.90
11855;DHT22;5987;53.140;8.904;2023-03-21T15:13:43;11.70;99.90
11855;DHT22;5987;53.140;8.904;2023-03-21T15:16:52;11.80;99.90
11855;DHT22;5987;53.140;8.904;2023-03-21T15:19:57;11.80;99.90
11855;DHT22;5987;53.140;8.904;2023-03-21T15:23:03;11.80;99.90
11855;DHT22;5987;53.140;8.904;2023-03-21T15:26:13;11.70;99.90
11855;DHT22;5987;53.140;8.904;2023-03-21T15:29:18;11.60;99.90
11855;DHT22;5987;53.140;8.904;2023-03-21T15:32:25;11.60;99.90
11855;DHT22;5987;53.140;8.904;2023-03-21T15:35:33;11.60;99.90
11855;DHT22;5987;53.140;8.904;2023-03-21T15:38:41;11.50;99.90
11855;DHT22;5987;53.140;8.904;2023-03-21T15:41:59;11.50;99.90
11855;DHT22;5987;53.140;8.904;2023-03-21T15:45:13;11.50;99.90
11855;DHT22;5987;53.140;8.904;2023-03-21T15:48:25;11.60;99.90
11855;DHT22;5987;53.140;8.904;2023-03-21T15:51:31;11.70;99.90
11855;DHT22;5987;53.140;8.904;2023-03-21T15:54:41;11.70;99.90
11855;DHT22;5987;53.140;8.904;2023-03-21T15:57:45;11.70;99.90
11855;DHT22;5987;53.140;8.904;2023-03-21T16:00:52;11.90;99.90
11855;DHT22;5987;53.140;8.904;2023-03-21T16:04:05;11.90;99.90
11855;DHT22;5987;53.140;8.904;2023-03-21T16:07:14;11.90;99.90
11855;DHT22;5987;53.140;8.904;2023-03-21T16:10:26;11.80;99.90
11855;DHT22;5987;53.140;8.904;2023-03-21T16:13:32;11.70;99.90
11855;DHT22;5987;53.140;8.904;2023-03-21T16:16:36;11.70;99.90
11855;DHT22;5987;53.140;8.904;2023-03-21T16:19:41;11.70;99.90
11855;DHT22;5987;53.140;8.904;2023-03-21T16:22:46;11.80;99.90
11855;DHT22;5987;53.140;8.904;2023-03-21T16:25:50;11.70;99.90
11855;DHT22;5987;53.140;8.904;2023-03-21T16:28:58;11.70;99.90
11855;DHT22;5987;53.140;8.904;2023-03-21T16:32:03;11.70;99.90
11855;DHT22;5987;53.140;8.904;2023-03-21T16:35:09;11.70;99.90
11855;DHT22;5987;53.140;8.904;2023-03-21T16:38:13;11.70;99.90
11855;DHT22;5987;53.140;8.904;2023-03-21T16:41:18;11.70;99.90
11855;DHT22;5987;53.140;8.904;2023-03-21T16:44:22;11.60;99.90
11855;DHT22;5987;53.140;8.904;2023-03-21T16:47:25;11.60;99.90
11855;DHT22;5987;53.140;8.904;2023-03-21T16:50:33;11.50;99.90
11855;DHT22;5987;53.140;8.904;2023-03-21T16:53:39;11.50;99.90
11855;DHT22;5987;53.140;8.904;2023-03-21T16:56:44;11.50;99.90
11855;DHT22;5987;53.140;8.904;2023-03-21T16:59:51;11.50;99.90
11855;DHT22;5987;53.140;8.904;2023-03-21T17:02:56;11.50;99.90
11855;DHT22;5987;53.140;8.904;2023-03-21T17:06:04;11.50;99.90
11855;DHT22;5987;53.140;8.904;2023-03-21T17:09:10;11.50;99.90
11855;DHT22;5987;53.140;8.904;2023-03-21T17:12:15;11.50;99.90
11855;DHT22;5987;53.140;8.904;2023-03-21T17:15:20;11.60;99.90
11855;DHT22;5987;53.140;8.904;2023-03-21T17:18:23;11.50;99.90
11855;DHT22;5987;53.140;8.904;2023-03-21T17:21:29;11.50;99.90
11855;DHT22;5987;53.140;8.904;2023-03-21T17:24:33;11.40;99.90
11855;DHT22;5987;53.140;8.904;2023-03-21T17:27:37;11.30;99.90
11855;DHT22;5987;53.140;8.904;2023-03-21T17:30:41;11.30;99.90
11855;DHT22;5987;53.140;8.904;2023-03-21T17:33:45;11.30;99.90
11855;DHT22;5987;53.140;8.904;2023-03-21T17:36:51;11.20;99.90
11855;DHT22;5987;53.140;8.904;2023-03-21T17:39:55;11.20;99.90
11855;DHT22;5987;53.140;8.904;2023-03-21T17:42:59;11.20;99.90
11855;DHT22;5987;53.140;8.904;2023-03-21T17:46:03;11.20;99.90
11855;DHT22;5987;53.140;8.904;2023-03-21T17:49:10;11.10;99.90
11855;DHT22;5987;53.140;8.904;2023-03-21T17:52:18;11.10;99.90
11855;DHT22;5987;53.140;8.904;2023-03-21T17:55:21;11.10;99.90
11855;DHT22;5987;53.140;8.904;2023-03-21T17:58:25;11.00;99.90
11855;DHT22;5987;53.140;8.904;2023-03-21T18:01:29;10.90;99.90
11855;DHT22;5987;53.140;8.904;2023-03-21T18:04:33;11.00;99.90
11855;DHT22;5987;53.140;8.904;2023-03-21T18:07:38;11.00;99.90
11855;DHT22;5987;53.140;8.904;2023-03-21T18:11:03;11.10;99.90
11855;DHT22;5987;53.140;8.904;2023-03-21T18:14:07;11.10;99.90
11855;DHT22;5987;53.140;8.904;2023-03-21T18:17:19;11.10;99.90
11855;DHT22;5987;53.140;8.904;2023-03-21T18:20:24;11.10;99.90
11855;DHT22;5987;53.140;8.904;2023-03-21T18:23:50;11.10;99.90
11855;DHT22;5987;53.140;8.904;2023-03-21T18:26:54;11.10;99.90
11855;DHT22;5987;53.140;8.904;2023-03-21T18:29:58;11.10;99.90
11855;DHT22;5987;53.140;8.904;2023-03-21T18:33:21;11.50;99.90
11855;DHT22;5987;53.140;8.904;2023-03-21T18:36:25;11.10;99.90
11855;DHT22;5987;53.140;8.904;2023-03-21T18:39:31;11.10;99.90
11855;DHT22;5987;53.140;8.904;2023-03-21T18:42:35;11.10;99.90
11855;DHT22;5987;53.140;8.904;2023-03-21T18:45:41;11.10;99.90
11855;DHT22;5987;53.140;8.904;2023-03-21T18:48:44;11.10;99.90
11855;DHT22;5987;53.140;8.904;2023-03-21T18:51:49;11.10;99.90
11855;DHT22;5987;53.140;8.904;2023-03-21T18:54:54;11.10;99.90
11855;DHT22;5987;53.140;8.904;2023-03-21T18:57:59;11.20;99.90
11855;DHT22;5987;53.140;8.904;2023-03-21T19:01:03;11.20;99.90
11855;DHT22;5987;53.140;8.904;2023-03-21T19:04:07;11.20;99.90
11855;DHT22;5987;53.140;8.904;2023-03-21T19:07:26;11.20;99.90
11855;DHT22;5987;53.140;8.904;2023-03-21T19:10:32;11.10;99.90
11855;DHT22;5987;53.140;8.904;2023-03-21T19:13:36;11.20;99.90
11855;DHT22;5987;53.140;8.904;2023-03-21T19:16:40;11.20;99.90
11855;DHT22;5987;53.140;8.904;2023-03-21T19:20:05;11.20;99.90
11855;DHT22;5987;53.140;8.904;2023-03-21T19:23:09;11.20;99.90
11855;DHT22;5987;53.140;8.904;2023-03-21T19:26:14;11.20;99.90
11855;DHT22;5987;53.140;8.904;2023-03-21T19:29:18;11.30;99.90
11855;DHT22;5987;53.140;8.904;2023-03-21T19:32:22;11.20;99.90
11855;DHT22;5987;53.140;8.904;2023-03-21T19:35:26;11.20;99.90
11855;DHT22;5987;53.140;8.904;2023-03-21T19:38:29;11.40;99.90
11855;DHT22;5987;53.140;8.904;2023-03-21T19:41:35;11.20;99.90
11855;DHT22;5987;53.140;8.904;2023-03-21T19:44:41;11.20;99.90
11855;DHT22;5987;53.140;8.904;2023-03-21T19:47:45;11.20;99.90
11855;DHT22;5987;53.140;8.904;2023-03-21T19:50:48;11.20;99.90
11855;DHT22;5987;53.140;8.904;2023-03-21T19:54:12;11.20;99.90
11855;DHT22;5987;53.140;8.904;2023-03-21T19:57:19;11.20;99.90
11855;DHT22;5987;53.140;8.904;2023-03-21T20:00:26;11.20;99.90
11855;DHT22;5987;53.140;8.904;2023-03-21T20:03:29;11.20;99.90
11855;DHT22;5987;53.140;8.904;2023-03-21T20:06:33;11.20;99.90
11855;DHT22;5987;53.140;8.904;2023-03-21T20:09:37;11.20;99.90
11855;DHT22;5987;53.140;8.904;2023-03-21T20:12:59;11.20;99.90
11855;DHT22;5987;53.140;8.904;2023-03-21T20:16:03;11.20;99.90
11855;DHT22;5987;53.140;8.904;2023-03-21T20:19:11;11.20;99.90
11855;DHT22;5987;53.140;8.904;2023-03-21T20:22:17;11.20;99.90
11855;DHT22;5987;53.140;8.904;2023-03-21T20:25:41;11.30;99.90
11855;DHT22;5987;53.140;8.904;2023-03-21T20:28:47;11.20;99.90